createdAt,value
2018-11-06T00:01:53.452Z,80.99
2018-11-06T00:05:28.221Z,81.26
2018-11-06T00:07:58.888Z,81.12
2018-11-06T00:10:31.396Z,82.07
2018-11-06T00:13:02.364Z,82.95
2018-11-06T00:15:33.278Z,83.06
2018-11-06T00:18:05.332Z,83.29
2018-11-06T00:20:36.727Z,82.20
2018-11-06T00:23:07.452Z,81.60
2018-11-06T00:25:38.101Z,80.91
2018-11-06T00:28:08.794Z,81.08
2018-11-06T00:30:40.103Z,81.22
2018-11-06T00:33:10.707Z,81.96
2018-11-06T00:35:41.414Z,82.31
2018-11-06T00:38:12.915Z,82.23
2018-11-06T00:40:43.556Z,82.44
2018-11-06T00:43:13.976Z,83.12
2018-11-06T00:45:44.569Z,83.16
2018-11-06T00:48:15.285Z,83.39
2018-11-06T00:50:45.923Z,82.91
2018-11-06T00:53:16.564Z,82.81
2018-11-06T00:55:47.220Z,82.09
2018-11-06T00:58:18.025Z,82.40
2018-11-06T01:00:48.599Z,81.32
2018-11-06T01:03:19.290Z,80.07
2018-11-06T01:05:50.895Z,80.15
2018-11-06T01:08:21.682Z,79.77
2018-11-06T01:10:52.367Z,79.48
2018-11-06T01:13:23.048Z,79.74
2018-11-06T01:15:53.577Z,78.97
2018-11-06T01:18:24.184Z,79.18
2018-11-06T01:20:54.829Z,78.96
2018-11-06T01:23:25.796Z,80.05
2018-11-06T01:25:56.382Z,80.42
2018-11-06T01:28:27.248Z,81.72
2018-11-06T01:30:59.160Z,82.18
2018-11-06T01:33:29.800Z,82.42
2018-11-06T01:36:00.553Z,82.56
2018-11-06T01:38:31.065Z,82.88
2018-11-06T01:41:01.788Z,81.49
2018-11-06T01:43:32.553Z,82.19
2018-11-06T01:46:02.997Z,81.06
2018-11-06T01:48:33.625Z,81.86
2018-11-06T01:51:04.325Z,82.39
2018-11-06T01:53:35.256Z,81.61
2018-11-06T01:56:05.884Z,81.79
2018-11-06T01:58:36.688Z,82.33
2018-11-06T02:01:07.379Z,80.96
2018-11-06T02:03:38.844Z,81.46
2018-11-06T02:06:10.053Z,82.33
2018-11-06T02:08:40.675Z,81.79
2018-11-06T02:11:11.436Z,80.18
2018-11-06T02:13:42.150Z,79.03
2018-11-06T02:16:12.831Z,78.75
2018-11-06T02:18:44.151Z,79.39
2018-11-06T02:21:16.184Z,80.59
2018-11-06T02:23:49.196Z,80.85
2018-11-06T02:26:20.095Z,81.08
2018-11-06T02:28:50.989Z,81.13
2018-11-06T02:31:22.369Z,80.48
2018-11-06T02:33:53.469Z,81.33
2018-11-06T02:36:24.720Z,82.06
2018-11-06T02:38:56.248Z,82.54
2018-11-06T02:41:27.231Z,82.17
2018-11-06T02:43:58.232Z,81.26
2018-11-06T02:46:29.967Z,81.99
2018-11-06T02:49:01.033Z,81.12
2018-11-06T02:51:32.059Z,80.99
2018-11-06T02:54:02.844Z,80.87
2018-11-06T02:56:33.523Z,80.63
2018-11-06T02:59:04.385Z,80.05
2018-11-06T03:01:34.982Z,80.54
2018-11-06T03:04:06.152Z,81.23
2018-11-06T03:06:36.765Z,80.99
2018-11-06T03:09:08.362Z,81.01
2018-11-06T03:11:39.040Z,81.20
2018-11-06T03:14:09.697Z,82.09
2018-11-06T03:16:40.438Z,82.18
2018-11-06T03:19:11.273Z,81.20
2018-11-06T03:21:41.871Z,82.25
2018-11-06T03:24:12.624Z,82.52
2018-11-06T03:26:43.242Z,81.74
2018-11-06T03:29:14.094Z,80.80
2018-11-06T03:31:45.128Z,80.34
2018-11-06T03:34:15.772Z,81.27
2018-11-06T03:36:46.699Z,81.07
2018-11-06T03:39:17.320Z,82.01
2018-11-06T03:41:47.958Z,82.16
2018-11-06T03:44:18.668Z,82.04
2018-11-06T03:46:49.699Z,81.14
2018-11-06T03:49:20.352Z,81.76
2018-11-06T03:51:51.019Z,81.10
2018-11-06T03:54:21.912Z,81.06
2018-11-06T03:56:52.484Z,80.37
2018-11-06T03:59:24.201Z,79.08
2018-11-06T04:01:55.155Z,79.66
2018-11-06T04:04:25.868Z,79.77
2018-11-06T04:06:56.522Z,79.68
2018-11-06T04:09:27.132Z,79.92
2018-11-06T04:11:57.879Z,82.85
2018-11-06T04:14:28.512Z,82.57
2018-11-06T04:16:59.160Z,82.27
2018-11-06T04:19:29.864Z,81.71
2018-11-06T04:22:01.359Z,80.28
2018-11-06T04:24:31.939Z,81.50
2018-11-06T04:27:02.708Z,82.33
2018-11-06T04:29:33.312Z,82.19
2018-11-06T04:32:03.959Z,82.34
2018-11-06T04:34:35.084Z,82.49
2018-11-06T04:37:05.935Z,82.24
2018-11-06T04:39:36.851Z,81.43
2018-11-06T04:42:07.924Z,81.91
2018-11-06T04:44:38.942Z,79.84
2018-11-06T04:47:09.700Z,79.89
2018-11-06T04:49:40.676Z,79.57
2018-11-06T04:52:11.879Z,80.98
2018-11-06T04:54:45.197Z,81.36
2018-11-06T04:57:16.313Z,81.08
2018-11-06T04:59:47.150Z,81.21
2018-11-06T05:02:18.960Z,80.33
2018-11-06T05:04:52.548Z,79.11
2018-11-06T05:07:23.223Z,79.12
2018-11-06T05:09:54.028Z,79.80
2018-11-06T05:12:25.013Z,78.97
2018-11-06T05:14:55.744Z,81.03
2018-11-06T05:17:27.124Z,82.26
2018-11-06T05:19:57.715Z,81.37
2018-11-06T05:22:28.524Z,81.08
2018-11-06T05:24:59.120Z,81.11
2018-11-06T05:27:29.849Z,80.10
2018-11-06T05:30:00.973Z,80.77
2018-11-06T05:32:31.551Z,80.80
2018-11-06T05:35:02.203Z,79.68
2018-11-06T05:37:33.097Z,78.83
2018-11-06T05:40:20.842Z,79.41
2018-11-06T05:42:53.094Z,80.27
2018-11-06T05:45:24.970Z,80.44
2018-11-06T05:47:56.036Z,79.76
2018-11-06T05:50:27.097Z,81.01
2018-11-06T05:52:58.975Z,80.75
2018-11-06T05:55:29.940Z,81.69
2018-11-06T05:58:00.807Z,82.01
2018-11-06T06:00:31.877Z,82.34
2018-11-06T06:03:03.622Z,81.51
2018-11-06T06:05:35.893Z,81.79
2018-11-06T06:08:07.908Z,80.96
2018-11-06T06:10:39.676Z,80.70
2018-11-06T06:13:10.546Z,80.73
2018-11-06T06:15:41.639Z,81.49
2018-11-06T06:18:12.703Z,81.08
2018-11-06T06:20:43.762Z,80.05
2018-11-06T06:23:15.323Z,80.22
2018-11-06T06:25:46.253Z,81.15
2018-11-06T06:28:17.484Z,80.36
2018-11-06T06:30:48.228Z,81.29
2018-11-06T06:33:19.103Z,81.28
2018-11-06T06:35:49.689Z,81.64
2018-11-06T06:38:21.076Z,81.89
2018-11-06T06:40:52.240Z,81.80
2018-11-06T06:43:23.320Z,81.44
2018-11-06T06:45:53.989Z,81.59
2018-11-06T06:48:24.592Z,80.71
2018-11-06T06:50:55.179Z,81.49
2018-11-06T06:53:26.395Z,81.77
2018-11-06T06:55:57.225Z,82.25
2018-11-06T06:58:28.157Z,82.66
2018-11-06T07:00:58.882Z,82.61
2018-11-06T07:03:30.295Z,83.41
2018-11-06T07:06:02.141Z,83.33
2018-11-06T07:08:33.098Z,83.89
2018-11-06T07:11:05.331Z,84.65
2018-11-06T07:13:37.145Z,84.72
2018-11-06T07:16:10.333Z,85.18
2018-11-06T07:18:46.255Z,84.93
2018-11-06T07:21:18.161Z,84.68
2018-11-06T07:23:48.764Z,84.44
2018-11-06T07:26:19.399Z,84.88
2018-11-06T07:28:54.899Z,84.63
2018-11-06T07:31:26.033Z,84.58
2018-11-06T07:33:56.607Z,83.43
2018-11-06T07:36:27.244Z,82.08
2018-11-06T07:38:59.421Z,81.32
2018-11-06T07:41:30.188Z,80.71
2018-11-06T07:44:01.626Z,80.48
2018-11-06T07:46:33.056Z,80.36
2018-11-06T07:49:03.712Z,80.54
2018-11-06T07:51:34.887Z,80.53
2018-11-06T07:54:05.393Z,80.40
2018-11-06T07:56:36.099Z,80.99
2018-11-06T07:59:07.500Z,80.84
2018-11-06T08:01:38.192Z,81.65
2018-11-06T08:04:08.970Z,81.04
2018-11-06T08:06:44.079Z,80.23
2018-11-06T08:09:16.111Z,80.21
2018-11-06T08:11:46.968Z,79.60
2018-11-06T08:14:17.797Z,80.00
2018-11-06T08:16:49.169Z,78.78
2018-11-06T08:19:20.089Z,79.28
2018-11-06T08:21:50.959Z,78.59
2018-11-06T08:24:28.595Z,79.13
2018-11-06T08:27:00.293Z,78.08
2018-11-06T08:29:30.924Z,78.32
2018-11-06T08:32:02.187Z,77.78
2018-11-06T08:34:32.559Z,77.37
2018-11-06T08:37:03.645Z,77.17
2018-11-06T08:39:34.531Z,78.03
2018-11-06T08:42:06.570Z,77.00
2018-11-06T08:44:37.592Z,77.35
2018-11-06T08:47:08.693Z,76.31
2018-11-06T08:49:39.343Z,76.91
2018-11-06T08:52:10.031Z,76.14
2018-11-06T08:54:41.183Z,75.85
2018-11-06T08:57:12.032Z,74.50
2018-11-06T08:59:43.840Z,75.59
2018-11-06T09:02:14.641Z,74.69
2018-11-06T09:04:45.305Z,75.02
2018-11-06T09:07:16.004Z,74.71
2018-11-06T09:09:49.156Z,74.25
2018-11-06T09:12:20.436Z,74.20
2018-11-06T09:14:51.081Z,73.08
2018-11-06T09:17:21.742Z,72.64
2018-11-06T09:19:52.462Z,72.69
2018-11-06T09:22:23.832Z,72.90
2018-11-06T09:24:57.852Z,72.11
2018-11-06T09:27:29.112Z,72.43
2018-11-06T09:30:03.967Z,72.57
2018-11-06T09:32:35.219Z,73.53
2018-11-06T09:35:06.931Z,73.06
2018-11-06T09:37:42.358Z,73.40
2018-11-06T09:40:15.743Z,73.79
2018-11-06T09:42:46.668Z,73.49
2018-11-06T09:45:17.529Z,73.98
2018-11-06T09:47:48.539Z,73.18
2018-11-06T09:50:19.895Z,72.97
2018-11-06T09:52:50.699Z,72.87
2018-11-06T09:55:22.003Z,72.43
2018-11-06T09:57:52.855Z,72.04
2018-11-06T10:00:24.486Z,71.62
2018-11-06T10:02:55.196Z,71.87
2018-11-06T10:05:26.721Z,71.74
2018-11-06T10:07:57.530Z,72.05
2018-11-06T10:10:28.404Z,71.78
2018-11-06T10:12:59.229Z,71.80
2018-11-06T10:15:29.862Z,70.58
2018-11-06T10:18:00.684Z,69.48
2018-11-06T10:20:31.496Z,69.52
2018-11-06T10:23:02.323Z,69.40
2018-11-06T10:25:33.467Z,69.42
2018-11-06T10:28:04.176Z,69.46
2018-11-06T10:30:35.775Z,69.46
2018-11-06T10:33:07.753Z,69.11
2018-11-06T10:35:39.776Z,69.69
2018-11-06T10:38:10.930Z,67.51
2018-11-06T10:40:43.098Z,68.48
2018-11-06T10:43:14.044Z,68.27
2018-11-06T10:45:45.514Z,68.43
2018-11-06T10:48:17.947Z,68.96
2018-11-06T10:50:48.624Z,67.95
2018-11-06T10:53:19.232Z,68.88
2018-11-06T10:55:49.882Z,68.95
2018-11-06T10:58:21.028Z,69.00
2018-11-06T11:00:57.044Z,69.15
2018-11-06T11:04:32.228Z,68.05
2018-11-06T11:07:02.956Z,67.66
2018-11-06T11:09:33.675Z,63.97
2018-11-06T11:12:04.270Z,62.58
2018-11-06T11:14:34.867Z,62.93
2018-11-06T11:17:06.564Z,61.67
2018-11-06T11:19:37.325Z,62.55
2018-11-06T11:22:08.167Z,61.03
2018-11-06T11:24:38.865Z,61.46
2018-11-06T11:27:10.140Z,61.12
2018-11-06T11:29:40.976Z,61.83
2018-11-06T11:32:11.549Z,61.17
2018-11-06T11:34:44.024Z,60.55
2018-11-06T11:37:14.807Z,59.65
2018-11-06T11:39:46.738Z,58.54
2018-11-06T11:42:18.457Z,58.31
2018-11-06T11:44:49.530Z,57.96
2018-11-06T11:47:20.785Z,57.29
2018-11-06T11:49:53.517Z,57.60
2018-11-06T11:52:25.240Z,57.63
2018-11-06T11:54:56.628Z,58.03
2018-11-06T11:57:28.467Z,58.56
2018-11-06T12:00:01.109Z,57.52
2018-11-06T12:02:31.835Z,58.48
2018-11-06T12:05:02.722Z,57.32
2018-11-06T12:07:33.409Z,57.78
2018-11-06T12:10:04.068Z,58.29
2018-11-06T12:12:34.933Z,57.23
2018-11-06T12:15:08.055Z,57.44
2018-11-06T12:17:38.800Z,57.02
2018-11-06T12:20:09.612Z,56.83
2018-11-06T12:22:40.555Z,57.16
2018-11-06T12:25:12.113Z,56.22
2018-11-06T12:27:43.073Z,56.78
2018-11-06T12:30:15.574Z,56.08
2018-11-06T12:32:46.247Z,56.65
2018-11-06T12:35:17.044Z,56.08
2018-11-06T12:37:47.612Z,55.73
2018-11-06T12:40:18.548Z,55.65
2018-11-06T12:42:49.158Z,55.75
2018-11-06T12:45:20.063Z,56.16
2018-11-06T12:47:50.926Z,54.98
2018-11-06T12:50:21.519Z,55.72
2018-11-06T12:52:52.374Z,55.54
2018-11-06T12:55:22.984Z,54.76
2018-11-06T12:57:53.666Z,55.80
2018-11-06T13:00:24.385Z,54.94
2018-11-06T13:02:55.012Z,55.18
2018-11-06T13:05:25.773Z,55.43
2018-11-06T13:07:57.093Z,55.15
2018-11-06T13:10:27.711Z,55.37
2018-11-06T13:12:58.139Z,55.47
2018-11-06T13:15:28.913Z,55.34
2018-11-06T13:18:00.514Z,55.85
2018-11-06T13:20:33.099Z,56.16
2018-11-06T13:23:06.867Z,56.51
2018-11-06T13:25:38.853Z,56.03
2018-11-06T13:28:10.017Z,55.94
2018-11-06T13:30:42.691Z,55.92
2018-11-06T13:33:14.155Z,55.70
2018-11-06T13:35:44.955Z,54.75
2018-11-06T13:38:19.255Z,55.37
2018-11-06T13:40:50.012Z,55.03
2018-11-06T13:43:20.639Z,55.77
2018-11-06T13:45:51.615Z,55.99
2018-11-06T13:48:22.120Z,55.38
2018-11-06T13:50:52.808Z,55.42
2018-11-06T13:53:23.487Z,56.53
2018-11-06T13:55:54.119Z,56.66
2018-11-06T13:58:25.556Z,56.66
2018-11-06T14:00:57.033Z,57.61
2018-11-06T14:03:27.855Z,56.83
2018-11-06T14:05:59.152Z,56.77
2018-11-06T14:08:30.498Z,57.36
2018-11-06T14:11:01.189Z,56.32
2018-11-06T14:13:31.939Z,57.10
2018-11-06T14:16:03.615Z,57.27
2018-11-06T14:18:34.883Z,56.93
2018-11-06T14:21:05.757Z,57.44
2018-11-06T14:23:37.987Z,56.68
2018-11-06T14:26:08.982Z,56.25
2018-11-06T14:28:39.752Z,56.73
2018-11-06T14:33:40.047Z,56.64
2018-11-06T14:38:41.407Z,56.82
2018-11-06T14:41:12.444Z,57.69
2018-11-06T14:43:45.760Z,57.90
2018-11-06T14:46:17.127Z,57.56
2018-11-06T14:48:48.769Z,58.21
2018-11-06T14:51:22.557Z,58.84
2018-11-06T14:53:54.215Z,58.36
2018-11-06T14:56:25.378Z,58.51
2018-11-06T14:58:57.518Z,58.80
2018-11-06T15:01:28.389Z,58.58
2018-11-06T15:04:01.048Z,59.43
2018-11-06T15:06:32.858Z,59.28
2018-11-06T15:09:04.988Z,59.30
2018-11-06T15:11:38.529Z,59.55
2018-11-06T15:14:09.416Z,59.57
2018-11-06T15:16:40.047Z,61.08
2018-11-06T15:19:10.851Z,60.69
2018-11-06T15:21:41.815Z,61.14
2018-11-06T15:24:12.576Z,60.95
2018-11-06T15:26:43.362Z,60.47
2018-11-06T15:29:14.077Z,60.46
2018-11-06T15:31:44.816Z,60.59
2018-11-06T15:34:15.555Z,60.64
2018-11-06T15:36:46.284Z,60.76
2018-11-06T15:39:16.955Z,61.20
2018-11-06T15:41:48.252Z,61.33
2018-11-06T15:44:19.207Z,61.34
2018-11-06T15:46:50.014Z,61.76
2018-11-06T15:49:20.657Z,61.46
2018-11-06T15:51:51.407Z,61.89
2018-11-06T15:54:22.124Z,61.66
2018-11-06T15:56:52.970Z,62.19
2018-11-06T15:59:23.548Z,62.20
2018-11-06T16:01:54.456Z,61.83
2018-11-06T16:04:27.249Z,61.65
2018-11-06T16:06:58.394Z,61.92
2018-11-06T16:09:33.935Z,62.33
2018-11-06T16:12:05.065Z,62.50
2018-11-06T16:14:38.388Z,62.76
2018-11-06T16:17:10.632Z,62.95
2018-11-06T16:19:42.246Z,61.95
2018-11-06T16:22:13.008Z,62.26
2018-11-06T16:24:45.185Z,62.53
2018-11-06T16:27:15.877Z,62.78
2018-11-06T16:29:46.609Z,63.30
2018-11-06T16:32:17.663Z,63.58
2018-11-06T16:34:48.260Z,63.96
2018-11-06T16:37:19.320Z,63.77
2018-11-06T16:39:50.060Z,64.92
2018-11-06T16:42:21.234Z,67.62
2018-11-06T16:44:51.955Z,68.84
2018-11-06T16:47:22.904Z,69.61
2018-11-06T16:49:53.652Z,70.16
2018-11-06T16:52:24.972Z,70.69
2018-11-06T16:54:55.695Z,71.89
2018-11-06T16:57:26.540Z,72.83
2018-11-06T16:59:57.388Z,73.76
2018-11-06T17:02:28.373Z,74.24
2018-11-06T17:04:58.993Z,74.34
2018-11-06T17:07:30.590Z,74.21
2018-11-06T17:10:03.166Z,74.59
2018-11-06T17:12:34.015Z,74.71
2018-11-06T17:15:05.267Z,74.89
2018-11-06T17:17:35.880Z,75.05
2018-11-06T17:20:08.753Z,75.51
2018-11-06T17:22:40.529Z,74.83
2018-11-06T17:25:13.721Z,75.04
2018-11-06T17:27:46.325Z,75.05
2018-11-06T17:30:18.083Z,75.48
2018-11-06T17:32:49.324Z,74.75
2018-11-06T17:35:21.842Z,74.74
2018-11-06T17:37:53.196Z,74.78
2018-11-06T17:40:24.659Z,74.93
2018-11-06T17:42:55.307Z,75.36
2018-11-06T17:45:25.988Z,75.41
2018-11-06T17:47:56.780Z,76.43
2018-11-06T17:50:27.419Z,75.60
2018-11-06T17:52:58.260Z,76.18
2018-11-06T17:55:28.970Z,76.12
2018-11-06T17:57:59.732Z,75.83
2018-11-06T18:00:30.351Z,75.40
2018-11-06T18:03:01.096Z,76.44
2018-11-06T18:05:34.772Z,75.88
2018-11-06T18:08:06.041Z,75.80
2018-11-06T18:10:36.873Z,76.36
2018-11-06T18:13:07.785Z,76.27
2018-11-06T18:15:38.512Z,76.24
2018-11-06T18:39:22.423Z,76.08
2018-11-06T18:44:52.138Z,76.43
2018-11-06T18:50:38.749Z,76.73
2018-11-06T19:23:12.153Z,78.25
2018-11-06T19:56:05.348Z,79.83
2018-11-06T19:58:42.435Z,79.87
2018-11-06T20:09:05.296Z,78.46
2018-11-06T20:11:39.306Z,78.99
2018-11-06T20:24:37.039Z,79.52
2018-11-06T20:27:08.973Z,79.82
2018-11-06T20:32:22.631Z,79.32
2018-11-06T20:40:28.159Z,78.42
2018-11-06T20:42:58.973Z,77.71
2018-11-06T20:55:59.160Z,77.55
2018-11-06T20:58:32.132Z,78.75
2018-11-06T21:11:40.706Z,78.65
2018-11-06T21:14:14.214Z,78.82
2018-11-06T21:19:22.434Z,78.38
2018-11-06T21:21:56.013Z,78.36
2018-11-06T21:29:42.575Z,79.94
2018-11-06T21:32:13.513Z,79.12
2018-11-06T21:45:39.907Z,79.67
2018-11-06T21:50:48.434Z,79.24
2018-11-06T21:53:19.140Z,79.33
2018-11-06T21:58:26.737Z,79.32
2018-11-06T22:00:57.584Z,79.96
2018-11-06T22:06:12.879Z,80.43
2018-11-06T22:08:43.663Z,80.09
2018-11-06T22:13:49.816Z,78.98
2018-11-06T22:18:58.593Z,79.98
2018-11-06T22:21:33.930Z,80.70
2018-11-06T22:24:05.229Z,80.65
2018-11-06T22:26:36.123Z,80.84
2018-11-06T22:29:08.182Z,81.55
2018-11-06T22:31:39.122Z,81.07
2018-11-06T22:34:11.386Z,82.33
2018-11-06T22:36:42.229Z,81.35
2018-11-06T22:39:13.192Z,81.66
2018-11-06T22:41:43.832Z,81.06
2018-11-06T22:44:14.467Z,81.01
2018-11-06T22:46:49.363Z,80.31
2018-11-06T22:49:21.092Z,79.96
2018-11-06T22:51:51.881Z,79.75
2018-11-06T22:54:23.027Z,79.82
2018-11-06T22:56:55.504Z,79.59
2018-11-06T22:59:26.176Z,78.73
2018-11-06T23:01:57.015Z,79.31
2018-11-06T23:04:28.107Z,79.93
2018-11-06T23:06:58.884Z,80.10
2018-11-06T23:09:29.708Z,79.52
2018-11-06T23:12:00.340Z,80.42
2018-11-06T23:14:31.164Z,79.75
2018-11-06T23:17:02.061Z,80.07
2018-11-06T23:19:32.808Z,80.09
2018-11-06T23:22:03.446Z,80.40
2018-11-06T23:24:34.180Z,80.52
2018-11-06T23:27:04.824Z,80.09
2018-11-06T23:29:35.463Z,79.70
2018-11-06T23:32:07.071Z,80.37
2018-11-06T23:34:37.917Z,81.04
2018-11-06T23:37:08.712Z,80.33
2018-11-06T23:39:40.166Z,81.30
2018-11-06T23:42:10.846Z,81.41
2018-11-06T23:44:41.701Z,80.80
2018-11-06T23:47:12.817Z,80.31
2018-11-06T23:49:45.174Z,80.40
2018-11-06T23:52:16.852Z,79.97
2018-11-06T23:54:48.692Z,80.41
2018-11-06T23:57:20.264Z,80.55
2018-11-06T23:59:51.656Z,81.04
